Time;durP1;ratioP1;P1;durP2;ratioP2;P2;SDS_P1;SDS_P2;PMS_P1;PMS_P2;Temp;Humidity;BMP_temperature;BMP_pressure;BME280_temperature;BME280_humidity;BME280_pressure;Samples;Min_cycle;Max_cycle;Signal;HPM_P1;HPM_P2
2023/01/17 00:01:49;;;;;;;100.82;39.97;;;;;;;;;;6276185;22;20000;-85
2023/01/17 00:09:51;;;;;;;103.38;42.80;;;;;;;;;;6231309;22;20015;-85
2023/01/17 00:12:17;;;;;;;93.25;39.38;;;;;;;;;;6248327;22;20010;-86
2023/01/17 00:14:43;;;;;;;103.85;40.15;;;;;;;;;;6275770;22;20087;-86
2023/01/17 00:17:08;;;;;;;102.13;40.58;;;;;;;;;;6223253;22;20426;-85
2023/01/17 01:34:08;;;;;;;132.00;40.30;;;;;;;;;;6273150;22;20042;-84
2023/01/17 01:36:37;;;;;;;123.00;39.15;;;;;;;;;;6248257;22;20342;-84
2023/01/17 01:39:02;;;;;;;126.00;40.70;;;;;;;;;;6274648;22;19999;-86
2023/01/17 01:41:27;;;;;;;112.60;37.92;;;;;;;;;;6274624;22;20328;-85
2023/01/17 01:43:54;;;;;;;122.32;41.83;;;;;;;;;;6273143;22;20320;-85
2023/01/17 01:46:28;;;;;;;149.70;44.67;;;;;;;;;;6272587;22;20417;-85
2023/01/17 01:49:18;;;;;;;113.45;39.92;;;;;;;;;;6272848;22;20397;-85
2023/01/17 01:51:48;;;;;;;110.15;38.30;;;;;;;;;;6273204;22;20052;-85
2023/01/17 01:54:24;;;;;;;97.60;36.20;;;;;;;;;;6248413;22;20004;-86
2023/01/17 01:56:50;;;;;;;94.10;35.17;;;;;;;;;;6273338;22;20007;-85
2023/01/17 01:59:16;;;;;;;89.05;33.50;;;;;;;;;;6222623;22;20026;-86
2023/01/17 02:01:45;;;;;;;90.28;35.17;;;;;;;;;;6273917;22;20000;-86
2023/01/17 02:04:10;;;;;;;107.70;37.15;;;;;;;;;;6273632;22;20007;-85
2023/01/17 02:06:57;;;;;;;111.75;36.25;;;;;;;;;;6275365;22;20003;-85
2023/01/17 02:09:23;;;;;;;132.65;39.50;;;;;;;;;;6225095;22;20081;-86
2023/01/17 02:11:48;;;;;;;133.98;41.35;;;;;;;;;;6224206;22;20447;-85
2023/01/17 02:14:18;;;;;;;126.57;38.85;;;;;;;;;;6275727;22;20364;-85
2023/01/17 02:16:46;;;;;;;119.57;37.67;;;;;;;;;;6249426;22;20007;-85
2023/01/17 02:19:49;;;;;;;102.30;36.17;;;;;;;;;;6275059;22;20014;-86
2023/01/17 02:22:41;;;;;;;100.28;36.03;;;;;;;;;;6275052;22;20076;-85
2023/01/17 02:25:18;;;;;;;105.60;37.42;;;;;;;;;;6278352;22;20018;-86
2023/01/17 02:28:15;;;;;;;100.07;36.05;;;;;;;;;;6280657;22;20007;-85
2023/01/17 02:30:47;;;;;;;92.63;38.50;;;;;;;;;;6280336;22;19994;-86
2023/01/17 02:33:22;;;;;;;112.13;44.10;;;;;;;;;;6293070;22;20094;-86
2023/01/17 02:36:06;;;;;;;106.00;46.08;;;;;;;;;;6297874;22;20042;-86
2023/01/17 02:38:36;;;;;;;98.72;39.08;;;;;;;;;;6300470;22;20006;-85
2023/01/17 02:41:04;;;;;;;;;;;;;;;;;;6264527;22;20003;-86
2023/01/17 02:43:30;;;;;;;96.70;35.88;;;;;;;;;;6250099;22;19918;-86
2023/01/17 02:45:55;;;;;;;98.38;37.55;;;;;;;;;;6276356;22;20011;-86
2023/01/17 02:48:22;;;;;;;93.35;36.35;;;;;;;;;;6223562;22;20000;-86
2023/01/17 02:50:57;;;;;;;112.50;40.13;;;;;;;;;;6250089;22;20066;-86
2023/01/17 02:53:31;;;;;;;105.60;40.25;;;;;;;;;;6276672;22;20053;-87
2023/01/17 02:56:21;;;;;;;110.10;41.00;;;;;;;;;;6250582;22;20011;-86
2023/01/17 02:59:28;;;;;;;106.05;40.35;;;;;;;;;;6276163;22;20003;-86
2023/01/17 03:01:57;;;;;;;114.18;41.63;;;;;;;;;;6252823;22;20008;-86
2023/01/17 03:04:34;;;;;;;108.53;40.22;;;;;;;;;;6277044;22;20053;-85
2023/01/17 03:07:01;;;;;;;106.13;39.38;;;;;;;;;;6250305;22;20412;-85
2023/01/17 03:09:30;;;;;;;101.78;38.17;;;;;;;;;;6276493;22;20011;-85
2023/01/17 03:11:56;;;;;;;101.72;39.92;;;;;;;;;;6256615;22;20000;-87
2023/01/17 03:14:22;;;;;;;101.10;40.03;;;;;;;;;;6264991;22;20000;-86
2023/01/17 03:16:47;;;;;;;107.05;43.60;;;;;;;;;;6296545;22;20004;-86
2023/01/17 03:19:14;;;;;;;104.00;43.08;;;;;;;;;;6286932;22;20011;-85
2023/01/17 03:21:40;;;;;;;95.30;41.95;;;;;;;;;;6276230;22;20000;-85
2023/01/17 03:24:09;;;;;;;97.32;40.60;;;;;;;;;;6274949;22;20473;-85
2023/01/17 03:26:34;;;;;;;98.65;41.60;;;;;;;;;;6274415;22;20423;-85
2023/01/17 03:28:59;;;;;;;99.13;38.53;;;;;;;;;;6275842;22;20000;-86
2023/01/17 03:31:25;;;;;;;90.80;39.67;;;;;;;;;;6275696;22;20063;-87
2023/01/17 03:33:51;;;;;;;95.32;40.20;;;;;;;;;;6276124;22;20010;-85
2023/01/17 03:36:17;;;;;;;90.40;37.10;;;;;;;;;;6275903;22;20035;-85
2023/01/17 03:38:42;;;;;;;94.50;39.47;;;;;;;;;;6248891;22;20012;-85
2023/01/17 03:41:08;;;;;;;97.32;40.38;;;;;;;;;;6275539;22;20074;-86
2023/01/17 03:43:33;;;;;;;98.05;41.85;;;;;;;;;;6223467;22;20015;-86
2023/01/17 03:46:06;;;;;;;99.57;41.38;;;;;;;;;;6276094;22;20003;-86
2023/01/17 03:48:31;;;;;;;103.45;43.97;;;;;;;;;;6225449;22;20463;-86
2023/01/17 03:50:57;;;;;;;106.28;43.88;;;;;;;;;;6224269;22;20007;-86
2023/01/17 03:53:23;;;;;;;96.38;43.83;;;;;;;;;;6252742;22;20011;-86
2023/01/17 03:55:48;;;;;;;104.65;46.95;;;;;;;;;;6279138;22;20010;-86
2023/01/17 03:58:15;;;;;;;104.18;45.60;;;;;;;;;;6275650;22;20031;-86
2023/01/17 04:00:40;;;;;;;101.85;44.22;;;;;;;;;;6223708;22;20486;-85
2023/01/17 04:03:06;;;;;;;106.80;44.50;;;;;;;;;;6223481;22;20014;-85
2023/01/17 04:05:31;;;;;;;101.97;42.55;;;;;;;;;;6276289;22;20334;-85
2023/01/17 04:07:57;;;;;;;95.75;41.70;;;;;;;;;;6248411;22;20014;-86
2023/01/17 04:10:22;;;;;;;94.05;41.17;;;;;;;;;;6223702;22;20004;-85
2023/01/17 04:12:48;;;;;;;92.07;39.38;;;;;;;;;;6275264;22;20004;-85
2023/01/17 04:15:13;;;;;;;97.07;40.97;;;;;;;;;;6275994;22;20003;-85
2023/01/17 04:17:39;;;;;;;99.30;41.50;;;;;;;;;;6276049;22;20004;-85
2023/01/17 04:20:04;;;;;;;96.28;40.78;;;;;;;;;;6276206;22;19995;-85
2023/01/17 04:22:30;;;;;;;104.60;41.28;;;;;;;;;;6224841;22;20493;-85
2023/01/17 04:24:59;;;;;;;97.95;39.58;;;;;;;;;;6251250;22;20022;-85
2023/01/17 04:27:25;;;;;;;92.72;39.08;;;;;;;;;;6279377;22;20007;-85
2023/01/17 04:29:50;;;;;;;93.22;38.28;;;;;;;;;;6253781;22;20003;-85
2023/01/17 04:32:16;;;;;;;87.60;38.25;;;;;;;;;;6254985;22;20012;-85
2023/01/17 04:34:41;;;;;;;93.05;39.42;;;;;;;;;;6294036;22;20000;-84
2023/01/17 04:37:07;;;;;;;100.25;41.67;;;;;;;;;;6303864;22;20014;-86
2023/01/17 04:39:32;;;;;;;94.82;40.95;;;;;;;;;;6303869;22;20003;-85
2023/01/17 04:41:58;;;;;;;94.38;40.95;;;;;;;;;;6300562;22;20042;-86
2023/01/17 04:44:23;;;;;;;97.97;42.78;;;;;;;;;;6299115;22;20008;-85
2023/01/17 04:46:49;;;;;;;98.57;42.80;;;;;;;;;;6289991;22;20082;-84
2023/01/17 04:49:14;;;;;;;101.40;42.28;;;;;;;;;;6276042;22;20011;-84
2023/01/17 04:51:39;;;;;;;94.65;41.80;;;;;;;;;;6249384;22;20003;-84
2023/01/17 04:54:05;;;;;;;95.25;42.28;;;;;;;;;;6278462;22;20014;-84
2023/01/17 04:56:30;;;;;;;97.22;41.58;;;;;;;;;;6276170;22;20004;-85
2023/01/17 04:58:57;;;;;;;116.03;46.70;;;;;;;;;;6275483;22;20004;-84
2023/01/17 05:01:22;;;;;;;112.78;46.78;;;;;;;;;;6273286;22;20002;-84
2023/01/17 05:03:48;;;;;;;111.10;46.88;;;;;;;;;;6272708;22;20031;-85
2023/01/17 05:06:13;;;;;;;106.55;44.00;;;;;;;;;;6275379;22;20014;-84
2023/01/17 05:08:38;;;;;;;102.95;42.85;;;;;;;;;;6248334;22;20000;-84
2023/01/17 05:11:04;;;;;;;98.80;43.92;;;;;;;;;;6274887;22;20000;-84
2023/01/17 05:13:30;;;;;;;110.35;45.10;;;;;;;;;;6274608;22;20100;-84
2023/01/17 05:15:56;;;;;;;129.85;50.80;;;;;;;;;;6274978;22;20004;-84
2023/01/17 05:18:25;;;;;;;255.52;77.65;;;;;;;;;;6248338;22;20113;-84
2023/01/17 05:20:50;;;;;;;224.40;70.57;;;;;;;;;;6274467;22;20003;-84
2023/01/17 05:23:16;;;;;;;225.50;71.32;;;;;;;;;;6274695;22;20000;-85
2023/01/17 05:25:43;;;;;;;139.20;52.78;;;;;;;;;;6272924;22;20008;-84
2023/01/17 05:28:08;;;;;;;102.55;41.80;;;;;;;;;;6272877;22;20393;-85
2023/01/17 05:30:34;;;;;;;97.75;39.70;;;;;;;;;;6276466;22;20004;-86
2023/01/17 05:32:59;;;;;;;98.25;38.95;;;;;;;;;;6274167;22;20011;-81
2023/01/17 05:35:31;;;;;;;98.10;40.25;;;;;;;;;;6274554;22;20142;-80
2023/01/17 05:37:56;;;;;;;106.20;42.80;;;;;;;;;;6272091;22;20004;-80
2023/01/17 05:40:24;;;;;;;102.60;42.10;;;;;;;;;;6249376;22;20094;-80
2023/01/17 05:42:51;;;;;;;100.25;41.58;;;;;;;;;;6275791;22;19995;-80
2023/01/17 05:45:17;;;;;;;101.43;41.13;;;;;;;;;;6277629;22;19996;-80
2023/01/17 05:47:44;;;;;;;108.60;45.08;;;;;;;;;;6276751;22;20030;-81
2023/01/17 05:50:11;;;;;;;102.63;42.35;;;;;;;;;;6275706;22;19999;-82
2023/01/17 05:52:39;;;;;;;111.22;44.17;;;;;;;;;;6274504;22;20004;-82
2023/01/17 05:55:08;;;;;;;97.85;44.25;;;;;;;;;;6275414;22;20007;-81
2023/01/17 05:57:34;;;;;;;118.50;48.95;;;;;;;;;;6274552;22;20082;-80
2023/01/17 05:59:59;;;;;;;115.18;50.42;;;;;;;;;;6273314;22;20046;-85
2023/01/17 06:02:43;;;;;;;124.25;55.78;;;;;;;;;;6281153;22;20100;-82
2023/01/17 06:05:09;;;;;;;117.32;48.75;;;;;;;;;;6249082;22;20008;-83
2023/01/17 06:07:35;;;;;;;107.30;46.00;;;;;;;;;;6227091;22;20011;-83
2023/01/17 06:10:02;;;;;;;111.20;46.00;;;;;;;;;;6280432;22;20003;-82
2023/01/17 06:12:28;;;;;;;108.85;46.50;;;;;;;;;;6274588;22;20003;-81
2023/01/17 06:14:53;;;;;;;111.88;48.25;;;;;;;;;;6275872;22;20357;-82
2023/01/17 06:17:19;;;;;;;116.22;53.13;;;;;;;;;;6271395;22;20084;-81
2023/01/17 06:23:24;;;;;;;155.55;73.80;;;;;;;;;;6273483;22;20016;-83
2023/01/17 06:25:51;;;;;;;137.48;59.58;;;;;;;;;;6228033;22;20050;-85
2023/01/17 06:28:18;;;;;;;115.47;51.08;;;;;;;;;;6257373;22;20424;-83
2023/01/17 06:30:44;;;;;;;115.68;48.72;;;;;;;;;;6275968;22;20418;-82
2023/01/17 06:33:39;;;;;;;111.00;48.70;;;;;;;;;;6230762;22;20012;-84
2023/01/17 06:42:53;;;;;;;142.40;60.25;;;;;;;;;;6228906;22;20432;-83
2023/01/17 06:45:19;;;;;;;140.75;60.63;;;;;;;;;;6165598;23;19997;-82
2023/01/17 06:47:44;;;;;;;117.90;52.05;;;;;;;;;;6142875;23;20019;-82
2023/01/17 06:51:10;;;;;;;;;;;;;;;;;;;;;
2023/01/17 06:59:09;;;;;;;112.43;44.67;;;;;;;;;;6180859;22;20009;-82
2023/01/17 07:01:36;;;;;;;108.15;46.97;;;;;;;;;;6280799;22;20093;-83
2023/01/17 07:04:06;;;;;;;112.93;49.55;;;;;;;;;;6276295;22;20015;-82
2023/01/17 07:06:35;;;;;;;125.40;55.37;;;;;;;;;;6218497;22;20012;-82
2023/01/17 07:09:46;;;;;;;113.00;51.20;;;;;;;;;;6247833;22;20519;-81
2023/01/17 07:12:11;;;;;;;;;;;;;;;;;;6273573;22;20006;-82
2023/01/17 07:14:37;;;;;;;102.68;45.13;;;;;;;;;;6269926;22;19942;-82
2023/01/17 07:17:09;;;;;;;110.60;48.05;;;;;;;;;;6245171;22;20050;-85
2023/01/17 07:19:34;;;;;;;115.70;50.60;;;;;;;;;;6246823;22;20007;-82
2023/01/17 07:22:00;;;;;;;139.05;58.88;;;;;;;;;;6227930;22;20383;-83
2023/01/17 07:24:26;;;;;;;130.60;60.28;;;;;;;;;;6279477;22;20077;-84
2023/01/17 07:26:51;;;;;;;145.18;65.25;;;;;;;;;;6276189;22;20082;-86
2023/01/17 07:29:17;;;;;;;129.65;54.47;;;;;;;;;;6275189;22;20008;-82
2023/01/17 07:31:43;;;;;;;130.77;55.97;;;;;;;;;;6274648;22;20004;-83
2023/01/17 07:34:57;;;;;;;139.77;60.00;;;;;;;;;;6223136;22;20039;-83
2023/01/17 07:37:22;;;;;;;142.43;58.45;;;;;;;;;;6243017;22;20008;-84
2023/01/17 07:39:48;;;;;;;138.15;59.47;;;;;;;;;;6247100;22;20102;-80
2023/01/17 07:42:13;;;;;;;131.27;59.75;;;;;;;;;;6270671;22;20351;-80
2023/01/17 07:44:44;;;;;;;134.40;58.42;;;;;;;;;;6272566;22;20083;-82
2023/01/17 07:47:17;;;;;;;129.40;55.78;;;;;;;;;;6241769;22;20061;-80
2023/01/17 07:49:44;;;;;;;127.88;55.83;;;;;;;;;;6220898;22;20330;-81
2023/01/17 07:52:14;;;;;;;150.57;63.25;;;;;;;;;;6271811;22;20089;-80
2023/01/17 07:54:40;;;;;;;144.13;65.45;;;;;;;;;;6246324;22;20007;-80
2023/01/17 07:57:09;;;;;;;149.57;64.22;;;;;;;;;;6219869;22;20008;-81
2023/01/17 07:59:35;;;;;;;156.70;68.03;;;;;;;;;;6247540;22;20150;-81
2023/01/17 08:02:01;;;;;;;148.40;65.10;;;;;;;;;;6271894;22;20031;-82
2023/01/17 08:04:27;;;;;;;167.15;71.30;;;;;;;;;;6271247;22;19999;-81
2023/01/17 08:06:53;;;;;;;157.32;68.03;;;;;;;;;;6269992;22;20107;-82
2023/01/17 08:09:19;;;;;;;150.35;63.20;;;;;;;;;;6244377;22;20011;-81
2023/01/17 08:11:46;;;;;;;137.50;55.40;;;;;;;;;;6242748;22;20003;-80
2023/01/17 08:15:01;;;;;;;122.15;51.47;;;;;;;;;;6267906;22;20011;-83
2023/01/17 08:17:27;;;;;;;122.25;51.45;;;;;;;;;;6271348;22;20004;-82
2023/01/17 08:19:52;;;;;;;119.93;52.42;;;;;;;;;;6270908;22;20003;-80
2023/01/17 08:22:18;;;;;;;128.27;52.97;;;;;;;;;;6269371;22;20080;-82
2023/01/17 08:24:47;;;;;;;114.10;50.08;;;;;;;;;;6271844;22;20011;-80
2023/01/17 08:27:12;;;;;;;124.53;53.47;;;;;;;;;;6247245;22;20011;-81
2023/01/17 08:29:45;;;;;;;141.05;68.00;;;;;;;;;;6273020;22;20434;-80
2023/01/17 08:32:11;;;;;;;122.35;56.22;;;;;;;;;;6251524;22;20003;-80
2023/01/17 08:34:37;;;;;;;123.40;54.70;;;;;;;;;;6220631;22;20511;-81
2023/01/17 08:37:02;;;;;;;105.13;48.00;;;;;;;;;;6251124;22;20030;-81
2023/01/17 08:39:28;;;;;;;111.53;50.08;;;;;;;;;;6282473;22;20000;-84
2023/01/17 08:42:09;;;;;;;112.30;52.50;;;;;;;;;;6274712;22;20362;-83
2023/01/17 08:44:34;;;;;;;121.13;52.88;;;;;;;;;;6275665;22;20007;-81
2023/01/17 08:47:00;;;;;;;137.52;61.55;;;;;;;;;;6279357;22;20003;-82
2023/01/17 08:49:29;;;;;;;119.78;53.55;;;;;;;;;;6270430;22;20011;-84
2023/01/17 08:51:54;;;;;;;111.03;47.35;;;;;;;;;;6272799;22;20003;-85
2023/01/17 08:54:21;;;;;;;104.65;46.65;;;;;;;;;;6275274;22;20030;-80
2023/01/17 08:56:47;;;;;;;110.07;42.78;;;;;;;;;;6269907;22;20120;-83
2023/01/17 08:59:14;;;;;;;90.03;37.85;;;;;;;;;;6269043;22;20031;-81
2023/01/17 09:01:40;;;;;;;87.97;39.10;;;;;;;;;;6238978;22;20034;-83
2023/01/17 09:04:09;;;;;;;78.72;36.67;;;;;;;;;;6239799;22;20501;-83
2023/01/17 09:06:37;;;;;;;88.57;40.67;;;;;;;;;;6266027;22;20004;-84
2023/01/17 09:09:04;;;;;;;98.60;47.05;;;;;;;;;;6239708;22;20450;-82
2023/01/17 09:11:48;;;;;;;69.63;34.30;;;;;;;;;;6268756;22;20010;-83
2023/01/17 09:14:14;;;;;;;81.22;36.25;;;;;;;;;;6270878;22;19995;-83
2023/01/17 09:16:39;;;;;;;76.38;36.58;;;;;;;;;;6272738;22;20115;-81
2023/01/17 09:19:05;;;;;;;76.22;35.50;;;;;;;;;;6269992;22;20031;-84
2023/01/17 09:21:33;;;;;;;83.38;41.10;;;;;;;;;;6272325;22;20019;-85
2023/01/17 09:23:59;;;;;;;96.55;43.65;;;;;;;;;;6270715;22;20000;-80
2023/01/17 09:26:26;;;;;;;82.20;37.58;;;;;;;;;;6217396;22;20018;-83
2023/01/17 09:28:52;;;;;;;98.85;45.45;;;;;;;;;;6270072;22;20031;-82
2023/01/17 09:31:19;;;;;;;112.63;48.78;;;;;;;;;;6270875;22;20411;-82
2023/01/17 09:33:45;;;;;;;118.32;53.20;;;;;;;;;;6246202;22;20117;-81
2023/01/17 09:36:10;;;;;;;86.15;37.88;;;;;;;;;;6244945;22;20003;-81
2023/01/17 09:38:36;;;;;;;82.70;37.28;;;;;;;;;;6246603;22;20018;-82
2023/01/17 09:41:01;;;;;;;84.93;38.72;;;;;;;;;;6247937;22;20008;-83
2023/01/17 09:43:37;;;;;;;86.68;40.08;;;;;;;;;;6247465;22;19995;-81
2023/01/17 09:46:02;;;;;;;78.50;35.28;;;;;;;;;;6246782;22;20038;-83
2023/01/17 09:48:33;;;;;;;78.45;35.10;;;;;;;;;;6246542;22;20031;-83
2023/01/17 09:51:00;;;;;;;73.13;33.67;;;;;;;;;;6244426;22;20050;-82
2023/01/17 09:53:26;;;;;;;77.93;33.50;;;;;;;;;;6243693;22;20004;-83
2023/01/17 09:55:59;;;;;;;80.63;36.85;;;;;;;;;;6241677;22;20010;-84
2023/01/17 09:58:38;;;;;;;83.03;38.90;;;;;;;;;;6216323;22;20062;-82
2023/01/17 10:01:06;;;;;;;81.28;38.28;;;;;;;;;;6269378;22;20007;-84
2023/01/17 10:03:42;;;;;;;80.25;38.70;;;;;;;;;;6268658;22;20004;-85
2023/01/17 10:06:29;;;;;;;79.80;35.80;;;;;;;;;;6270927;22;20000;-81
2023/01/17 10:09:08;;;;;;;83.40;38.20;;;;;;;;;;6243315;22;20010;-82
2023/01/17 10:11:43;;;;;;;74.32;34.60;;;;;;;;;;6243270;22;20003;-82
2023/01/17 10:14:32;;;;;;;70.38;33.55;;;;;;;;;;6270930;22;19996;-83
2023/01/17 10:17:12;;;;;;;78.28;34.70;;;;;;;;;;6246362;22;20320;-84
2023/01/17 10:19:47;;;;;;;72.88;33.88;;;;;;;;;;6247221;22;20007;-84
2023/01/17 10:22:25;;;;;;;76.85;34.78;;;;;;;;;;6245689;22;20149;-83
2023/01/17 10:24:53;;;;;;;75.80;36.38;;;;;;;;;;6247541;22;20000;-84
2023/01/17 10:27:22;;;;;;;88.78;45.08;;;;;;;;;;6274571;22;20018;-84
2023/01/17 10:29:47;;;;;;;75.38;36.85;;;;;;;;;;6248801;22;20000;-84
2023/01/17 10:32:13;;;;;;;72.97;33.85;;;;;;;;;;6224644;22;20018;-81
2023/01/17 10:34:50;;;;;;;71.75;33.58;;;;;;;;;;6276794;22;20327;-83
2023/01/17 10:37:18;;;;;;;70.75;33.17;;;;;;;;;;6250829;22;20358;-85
2023/01/17 10:39:45;;;;;;;68.32;32.17;;;;;;;;;;6246041;22;20370;-85
2023/01/17 10:42:43;;;;;;;64.90;29.67;;;;;;;;;;6277722;22;20079;-84
2023/01/17 10:45:24;;;;;;;67.25;29.90;;;;;;;;;;6247554;22;19995;-85
2023/01/17 10:47:51;;;;;;;;;;;;;;;;;;6199413;22;20020;-86
2023/01/17 10:50:20;;;;;;;71.45;33.33;;;;;;;;;;6250187;22;19907;-86
2023/01/17 10:52:55;;;;;;;62.85;30.25;;;;;;;;;;6217372;22;20014;-82
2023/01/17 10:55:24;;;;;;;68.07;34.58;;;;;;;;;;6244333;22;20125;-83
2023/01/17 10:57:49;;;;;;;66.38;32.30;;;;;;;;;;6275674;22;20650;-86
2023/01/17 11:00:45;;;;;;;70.13;32.85;;;;;;;;;;6266222;22;20015;-90
2023/01/17 11:03:11;;;;;;;64.75;32.10;;;;;;;;;;6252324;22;20074;-88
2023/01/17 11:05:37;;;;;;;65.00;31.77;;;;;;;;;;6244276;22;20008;-89
2023/01/17 11:08:06;;;;;;;64.00;31.42;;;;;;;;;;6244029;22;20145;-86
2023/01/17 11:11:01;;;;;;;61.22;30.55;;;;;;;;;;6271935;22;20011;-88
2023/01/17 11:13:31;;;;;;;65.20;32.08;;;;;;;;;;6250420;22;20004;-87
2023/01/17 11:16:07;;;;;;;62.45;30.10;;;;;;;;;;6278671;22;20003;-86
2023/01/17 11:18:34;;;;;;;65.55;31.00;;;;;;;;;;6254354;22;20003;-86
2023/01/17 11:21:11;;;;;;;63.17;30.63;;;;;;;;;;6278921;22;20004;-86
2023/01/17 11:23:37;;;;;;;61.60;30.90;;;;;;;;;;6253337;22;20000;-85
2023/01/17 11:26:06;;;;;;;67.47;32.88;;;;;;;;;;6255318;22;20015;-84
2023/01/17 11:28:36;;;;;;;61.72;31.30;;;;;;;;;;6252180;22;20448;-83
2023/01/17 11:31:06;;;;;;;61.40;28.77;;;;;;;;;;6287692;22;20014;-86
2023/01/17 11:33:43;;;;;;;59.70;27.80;;;;;;;;;;6276284;22;20011;-85
2023/01/17 11:36:21;;;;;;;60.15;29.05;;;;;;;;;;6253798;22;20007;-84
2023/01/17 11:39:20;;;;;;;58.55;29.88;;;;;;;;;;6273880;22;20004;-84
2023/01/17 11:41:46;;;;;;;62.40;31.05;;;;;;;;;;6247393;22;20006;-84
2023/01/17 11:44:31;;;;;;;63.97;32.03;;;;;;;;;;6274546;22;20022;-83
2023/01/17 11:47:14;;;;;;;63.45;31.65;;;;;;;;;;6273860;22;20061;-84
2023/01/17 11:49:40;;;;;;;69.55;33.63;;;;;;;;;;6273224;22;20022;-85
2023/01/17 11:52:26;;;;;;;79.50;36.63;;;;;;;;;;6274693;22;19996;-83
2023/01/17 11:54:52;;;;;;;69.13;33.25;;;;;;;;;;6274454;22;20334;-84
2023/01/17 11:57:32;;;;;;;63.83;33.20;;;;;;;;;;6272979;22;19996;-85
2023/01/17 12:00:19;;;;;;;66.22;32.83;;;;;;;;;;6272844;22;20435;-84
2023/01/17 12:03:04;;;;;;;72.00;35.40;;;;;;;;;;6273825;22;19996;-83
2023/01/17 12:06:00;;;;;;;74.25;33.72;;;;;;;;;;6272419;22;20455;-83
2023/01/17 12:08:55;;;;;;;73.18;36.92;;;;;;;;;;6271740;22;20000;-83
2023/01/17 12:13:59;;;;;;;64.28;33.25;;;;;;;;;;6219536;22;20039;-82
2023/01/17 12:14:51;;;;;;;69.45;32.97;;;;;;;;;;6274112;22;20419;-81
2023/01/17 12:17:39;;;;;;;62.78;30.73;;;;;;;;;;6270292;22;20012;-82
2023/01/17 12:20:11;;;;;;;65.78;34.53;;;;;;;;;;6248162;22;20081;-82
2023/01/17 12:22:56;;;;;;;65.90;33.45;;;;;;;;;;6247556;22;20419;-83
2023/01/17 12:25:32;;;;;;;64.13;30.25;;;;;;;;;;6273888;22;20022;-83
2023/01/17 12:27:58;;;;;;;61.67;30.73;;;;;;;;;;6270906;22;20035;-82
2023/01/17 12:30:37;;;;;;;60.55;31.63;;;;;;;;;;6273969;22;19999;-84
2023/01/17 12:33:06;;;;;;;62.50;29.55;;;;;;;;;;6272516;22;20000;-87
2023/01/17 12:35:37;;;;;;;58.13;29.80;;;;;;;;;;6270517;22;20000;-81
2023/01/17 12:38:10;;;;;;;59.45;30.35;;;;;;;;;;6271900;22;20004;-81
2023/01/17 12:40:48;;;;;;;61.08;30.58;;;;;;;;;;6270692;22;20082;-83
2023/01/17 12:43:24;;;;;;;59.65;30.65;;;;;;;;;;6272346;22;20449;-81
2023/01/17 12:45:50;;;;;;;57.72;30.23;;;;;;;;;;6247101;22;20121;-83
2023/01/17 12:48:17;;;;;;;54.88;29.45;;;;;;;;;;6271918;22;20007;-84
2023/01/17 12:50:51;;;;;;;61.15;29.13;;;;;;;;;;6269475;22;20403;-83
2023/01/17 12:53:27;;;;;;;56.75;29.10;;;;;;;;;;6271485;22;20004;-83
2023/01/17 12:56:23;;;;;;;55.33;28.00;;;;;;;;;;6270660;22;20007;-90
2023/01/17 12:59:23;;;;;;;67.32;31.48;;;;;;;;;;6270147;22;20004;-90
2023/01/17 13:01:56;;;;;;;59.78;29.38;;;;;;;;;;6258303;22;20004;-83
2023/01/17 13:04:32;;;;;;;52.72;28.33;;;;;;;;;;6248331;22;20008;-82
2023/01/17 13:06:57;;;;;;;53.65;26.90;;;;;;;;;;6271941;22;20015;-83
2023/01/17 13:09:23;;;;;;;53.95;28.05;;;;;;;;;;6273449;22;20000;-81
2023/01/17 13:12:08;;;;;;;61.42;29.40;;;;;;;;;;6273447;22;20351;-82
2023/01/17 13:14:33;;;;;;;59.78;28.33;;;;;;;;;;6273930;22;20011;-82
2023/01/17 13:17:01;;;;;;;56.22;28.15;;;;;;;;;;6275218;22;20085;-82
2023/01/17 13:19:36;;;;;;;57.50;28.90;;;;;;;;;;6248340;22;20390;-82
2023/01/17 13:22:04;;;;;;;52.42;27.80;;;;;;;;;;6275411;22;20003;-82
2023/01/17 13:24:36;;;;;;;53.65;28.48;;;;;;;;;;6248053;22;20011;-82
2023/01/17 13:27:01;;;;;;;54.75;28.90;;;;;;;;;;6274520;22;20011;-82
2023/01/17 13:29:52;;;;;;;63.30;29.55;;;;;;;;;;6275781;22;20000;-83
2023/01/17 13:32:17;;;;;;;;;;;;;;;;;;6274148;22;20350;-82
2023/01/17 13:35:35;;;;;;;54.80;27.80;;;;;;;;;;6275574;22;19909;-82
2023/01/17 13:38:10;;;;;;;53.83;26.60;;;;;;;;;;6209407;22;20442;-82
2023/01/17 13:40:54;;;;;;;54.13;27.98;;;;;;;;;;6274211;22;20028;-81
2023/01/17 13:43:21;;;;;;;64.65;29.50;;;;;;;;;;6273561;22;20004;-82
2023/01/17 13:45:51;;;;;;;59.22;30.02;;;;;;;;;;6273549;22;20392;-80
2023/01/17 13:48:17;;;;;;;63.30;32.45;;;;;;;;;;6247808;22;20387;-81
2023/01/17 13:50:46;;;;;;;68.05;31.58;;;;;;;;;;6275047;22;20007;-81
2023/01/17 13:53:27;;;;;;;73.93;37.00;;;;;;;;;;6274624;22;20000;-81
2023/01/17 13:56:12;;;;;;;72.10;36.92;;;;;;;;;;6274237;22;20007;-85
2023/01/17 13:58:45;;;;;;;64.30;31.67;;;;;;;;;;6274412;22;20000;-84
2023/01/17 14:01:11;;;;;;;65.65;33.30;;;;;;;;;;6273932;22;20419;-83
2023/01/17 14:03:49;;;;;;;72.18;32.90;;;;;;;;;;6274013;22;19999;-83
2023/01/17 14:06:45;;;;;;;67.90;34.85;;;;;;;;;;6277113;22;20027;-84
2023/01/17 14:09:17;;;;;;;74.97;36.85;;;;;;;;;;6244165;22;20003;-84
2023/01/17 14:12:05;;;;;;;86.05;42.65;;;;;;;;;;6276750;22;20065;-84
2023/01/17 14:14:40;;;;;;;74.38;35.78;;;;;;;;;;6258213;22;20029;-83
2023/01/17 14:17:15;;;;;;;72.60;36.25;;;;;;;;;;6296017;22;20023;-82
2023/01/17 14:19:51;;;;;;;72.13;34.80;;;;;;;;;;6288053;22;20304;-85
2023/01/17 14:22:19;;;;;;;62.63;31.55;;;;;;;;;;6275258;22;20004;-82
2023/01/17 14:25:13;;;;;;;65.13;33.28;;;;;;;;;;6275123;22;20004;-85
2023/01/17 14:27:45;;;;;;;74.68;36.25;;;;;;;;;;6249277;22;20007;-84
2023/01/17 14:30:36;;;;;;;71.70;36.00;;;;;;;;;;6275269;22;20050;-85
2023/01/17 14:33:03;;;;;;;78.28;38.58;;;;;;;;;;6257848;22;20011;-83
2023/01/17 14:35:34;;;;;;;73.88;36.47;;;;;;;;;;6276475;22;20303;-82
2023/01/17 14:38:04;;;;;;;67.43;33.17;;;;;;;;;;6274812;22;20007;-82
2023/01/17 14:40:34;;;;;;;70.45;34.33;;;;;;;;;;6275352;22;20083;-82
2023/01/17 14:43:10;;;;;;;73.47;35.38;;;;;;;;;;6249789;22;20004;-85
2023/01/17 14:45:35;;;;;;;71.85;36.53;;;;;;;;;;6226148;22;20011;-83
2023/01/17 14:48:05;;;;;;;73.72;36.45;;;;;;;;;;6275349;22;20004;-87
2023/01/17 14:50:38;;;;;;;85.53;38.97;;;;;;;;;;6249300;22;19996;-81
2023/01/17 14:53:12;;;;;;;79.45;38.75;;;;;;;;;;6275046;22;19999;-80
2023/01/17 14:55:47;;;;;;;70.35;35.40;;;;;;;;;;6276140;22;20004;-80
2023/01/17 14:58:33;;;;;;;74.20;36.15;;;;;;;;;;6274676;22;20010;-79
2023/01/17 15:01:03;;;;;;;78.78;36.75;;;;;;;;;;6274123;22;20015;-80
2023/01/17 15:03:29;;;;;;;;;;;;;;;;;;6275193;22;20000;-81
2023/01/17 15:05:55;;;;;;;81.80;37.95;;;;;;;;;;6275914;22;19907;-80
2023/01/17 15:08:22;;;;;;;82.97;39.58;;;;;;;;;;6274717;22;20012;-81
2023/01/17 15:10:57;;;;;;;95.78;43.97;;;;;;;;;;6248825;22;20000;-81
2023/01/17 15:13:33;;;;;;;102.93;46.22;;;;;;;;;;6274090;22;20007;-81
2023/01/17 15:16:07;;;;;;;98.55;45.70;;;;;;;;;;6273969;22;19996;-80
2023/01/17 15:18:36;;;;;;;97.07;44.58;;;;;;;;;;6275850;22;20502;-82
2023/01/17 15:21:13;;;;;;;107.75;44.28;;;;;;;;;;6273674;22;20010;-83
2023/01/17 15:23:42;;;;;;;108.30;46.90;;;;;;;;;;6249311;22;20339;-83
2023/01/17 15:26:11;;;;;;;103.80;46.38;;;;;;;;;;6274354;22;19999;-83
2023/01/17 15:28:36;;;;;;;100.53;44.47;;;;;;;;;;6276083;22;20382;-84
2023/01/17 15:31:09;;;;;;;98.68;44.85;;;;;;;;;;6274707;22;20000;-83
2023/01/17 15:33:36;;;;;;;107.68;46.47;;;;;;;;;;6274367;22;20018;-83
2023/01/17 15:36:03;;;;;;;98.97;44.13;;;;;;;;;;6248569;22;20339;-83
2023/01/17 15:38:29;;;;;;;98.65;45.17;;;;;;;;;;6275933;22;20011;-83
2023/01/17 15:40:54;;;;;;;103.03;46.55;;;;;;;;;;6248773;22;20427;-82
2023/01/17 15:43:20;;;;;;;107.32;51.55;;;;;;;;;;6274125;22;20030;-80
2023/01/17 15:45:55;;;;;;;120.97;53.92;;;;;;;;;;6248898;22;20010;-82
2023/01/17 15:48:32;;;;;;;121.35;54.03;;;;;;;;;;6249068;22;20011;-81
2023/01/17 15:50:58;;;;;;;122.72;55.65;;;;;;;;;;6249993;22;20007;-81
2023/01/17 15:53:32;;;;;;;131.75;59.15;;;;;;;;;;6274592;22;20128;-82
2023/01/17 15:55:58;;;;;;;126.80;56.90;;;;;;;;;;6274217;22;20045;-82
2023/01/17 15:58:28;;;;;;;125.15;58.35;;;;;;;;;;6274323;22;20410;-82
2023/01/17 16:00:53;;;;;;;133.93;57.85;;;;;;;;;;6276160;22;20027;-82
2023/01/17 16:03:28;;;;;;;148.38;64.70;;;;;;;;;;6248638;22;20320;-82
2023/01/17 16:05:55;;;;;;;147.55;70.35;;;;;;;;;;6224577;22;19996;-82
2023/01/17 16:08:31;;;;;;;160.00;76.32;;;;;;;;;;6226181;22;20080;-81
2023/01/17 16:11:00;;;;;;;194.95;88.75;;;;;;;;;;6253907;22;20454;-82
2023/01/17 16:13:29;;;;;;;195.48;89.10;;;;;;;;;;6231224;22;20004;-82
2023/01/17 16:16:14;;;;;;;244.07;104.53;;;;;;;;;;6255554;22;19996;-81